Impacts TAF Board
For situational awareness. Not to be used for flight planning purposes.
IDs:

KSEA - Seattle-Tacoma Intl, WA, US

Issued at 1219 UTC 10 Aug 2022
Updated at 1417 UTC 10 Aug 2022
Potential Impact None Slight Moderate High
Time1353Z 10/15Z 10/16Z 10/17Z 10/18Z 10/19Z 10/20Z 10/21Z 10/22Z 10/23Z 11/00Z 11/01Z 11/02Z 11/03Z>>
Type OBS PRVL PRVL PRVL PRVL PRVL PRVL PRVL PRVL PRVL PRVL PRVL PRVL PRVL
VIS 10 >6 >6 >6 >6 >6 >6 >6 >6 >6 >6 >6 >6 >6
CIG 8 6 6 6 30 30 30 30 50 50 50 50 50 50
Cover OVC OVC OVC OVC OVC OVC OVC OVC OVC OVC OVC OVC BKN BKN
FltCat IFR IFR IFR IFR MVFR MVFR MVFR MVFR VFR VFR VFR VFR VFR VFR
WX -- -- -- -- -- -- -- -- -- -- -- -- -- --
WDir 200 210 210 210 210 210 210 210 230 230 230 230 210 210
WSpd 9 6 6 6 7 7 7 7 8 8 8 8 4 4
WGst -- -- -- -- -- -- -- -- -- -- -- -- -- --
WSHgt -- -- -- -- -- -- -- -- -- -- -- -- -- --
WSDir -- -- -- -- -- -- -- -- -- -- -- -- -- --
WSSpd -- -- -- -- -- -- -- -- -- -- -- -- -- --
Raw TAF
KSEA 101219Z 1012/1118 21006KT P6SM OVC006
  FM101800 21007KT P6SM SCT010 OVC030
  FM102200 23008KT P6SM OVC050
  FM110200 21004KT P6SM BKN050
  FM110600 VRB03KT P6SM SCT250


Raw METAR
KSEA 101353Z 20009KT 10SM OVC008 16/13 A3000 RMK AO2 SLP162 T01560133
KSEA 101253Z 20007KT 10SM OVC005 16/13 A2997 RMK AO2 SLP154 T01560133
KSEA 101153Z 21008KT 10SM OVC006 16/13 A2995 RMK AO2 SLP147 T01560133 10194 20156 51013

METAR Board
Radar Display
Forecast Discussion
For situational awareness. Not to be used for flight planning purposes.